Terminal Aerodrome Forecast
Issued by NWS Hastings, NE

Home | Current Version | Previous Version | Text Only | Print | Product List | Glossary On
Versions: 1 2 3 4 5 6 7 8 9 10 11 12
704
FTUS45 KGID 022320
TAFEAR
TAF
KEAR 022320Z 0300/0324 VRB06KT P6SM BKN200
     FM031600 19006KT P6SM SCT015 OVC035
     FM031700 19007KT 5SM BR VCSH SCT008 OVC015
     FM032100 18010KT 5SM BR VCSH SCT003 BKN008
      AMD LTD TO CLD VIS AND WIND=

USA.gov is the U.S. government's official web portal to all federal, state and local government web resources and services.